Flugplatz Weißenburg-Wülzburg (UL)

Hier findest Du alle Informationen zum Flugplatz Weißenburg-Wülzburg (UL).

Informationen für Piloten zum Flugplatz Weißenburg-Wülzburg

Hier findest Du alle relevanten Informationen, die Du als Pilot benötigst, um Weißenburg-Wülzburg anzufliegen.

Flugplatz: Weißenburg-Wülzburg ICAO-Code: UL Flugplatz
Frequenz Turm: 126,035 Mhz GAFOR Gebiet: 56
Frequenz Ground: 126,035 Mhz Mogas: ja
Platzrunde: S 2800 ft Landegebühr: 5,00 €
Platzhöhe: - Sunrise: 04:09 Uhr UTC
Pisten: 05/23 - 700 m x 30 m, ASPH Sunset: 18:30 Uhr UTC

Mitglieder, die in Weißenburg-Wülzburg fliegen

Flugwetter am Flugplatz Weißenburg-Wülzburg

Die METAR Information stammen aus EDDN (52.75 km entfernt).

METAR Code:
2022/08/15 20:50
EDDN 152050Z AUTO 21006KT 9999 VCSH FEW///CB 20/15 Q1009 RESHRA

Flugschulen am Flugplatz Weißenburg-Wülzburg

Am Flugplatz Weißenburg-Wülzburg gibt es leider keine Flugschule.

Benachbarte Flugplätze und Flugschulen

Es gibt 22 weitere Flugplätze in einem Umkreis von 50 km um den Flugplatz Weißenburg-Wülzburg.

Jetzt anmelden

Passwort vergessen

Umfrage Archiv

Sendet Ihr ADS-B und/oder FLARM?

Ja
83.6 %
Nein
16.4 %
Stimmen: 201 | Diskussion
Anzeige: Roland Aircraft
Statistik Alle Mitglieder

Aktuell sind 63 Besucher online, davon 3 Mitglieder und 60 Gäste.


Mitglieder online:
mountie76  SuperBabb  StevenOS 

Anzeige: ULPower Aero Engines Anzeige: Pocket FMS